Pireps
You are here: Olympic Virtual Pireps

Flight OLY941

  • Submitted By: Stavros Sarikas
  • Departure Airport: Dimokritos Airport (LGAL)
  • Arrival Airport: Eleftherios Venizelos International Airport (LGAV)
  • Aircraft: A320-200 (SX-OAT)
  • Flight Time: 00.58
  • Date Submitted: 15/08/2017
  • Route: LMO UG33 NEVRA
  • Status: Accepted
Flight Details
Gross Revenue:
(116 load / € 55.00 per unit
€ 6, 380.00
Fuel Cost:
(-360 fuel used @ 0.19 / unit)
(€ -68.40)

Additional Log Information:

View Log

Aircraft Used in flight is Airbus A320 British Airways G-EUUU
17:40 Boarding
17:40 Beacon Lights ON at 40 Feet
17:40 Brakes are On
17:40 In Air Refuel Suspected
17:40 Navigation Lights ON at 40 Feet
17:45 Engine 2 Started
17:46 Engine 1 Started
17:47 Brakes are Released
17:47 Pushing back
17:47 Flaps 3 Selected at 40ft and 0kts
17:47 Pushing back
17:48 Taxi Lights ON at 40 Feet
17:50 Landing Lights ON at 40 AGL
17:50 Strobe Lights ON at 40 Feet
17:51 You Took off @ 140 Knots and Flaps at Position 3 With a heading of 73 Degrees
Departure Weather LGAL 151420Z 25010KT 9999 FEW030 28/20 Q1013
Departure Coordinates 40.8589817904398/ 25.9661212608503
Takeoff Weight=59664KG Fuel Weight=4822KG
17:51 Paused
17:51 TOC Reached
17:51 Unpaused
17:51 Landing Gear Up @ 151 Knots and 100 Feet
17:51 Taxi Lights OFF at 110 Feet
17:51 Flaps 2 Selected at 1580ft and 170kts
17:52 Flaps 0 Selected at 1780ft and 184kts
17:53 You exceeded maximum bank angle
17:54 Below 10000 feet you are not allowed to go over 250 knots
17:54 Above FL100 you need to switch of the landing lights
17:55 Landing Lights OFF at 10320 AGL
18:27 Landing Lights ON at 9760 AGL
18:33 Flaps 1 Selected at 3180ft and 227kts
18:34 Flaps 3 Selected at 1620ft and 206kts
18:34 Landing Gear Down @ 206 Knots and 1470 Feet
18:34 Flaps 4 Selected at 1260ft and 198kts
18:34 Flaps 5 Selected at 1250ft and 197kts
18:34 Taxi Lights ON at 1150 Feet
18:35 You Landed @ 129 Knots with -467 Vertical Speed With a heading of 38 and with 2.2624 G Force
Arrival Weather: LGAV 151520Z 03019KT 9999 FEW025 29/13 Q1014 NOSIG
Arrival Coordinates 37.9242298965528/ 23.921337218362
Landing Weight=57749KG Fuel Weight=2905KG
18:35 Paused
18:36 Taxiing to gate
18:36 Landing Lights OFF at 320 AGL
18:36 Strobe Lights OFF at 320 Feet
18:36 Flaps 0 Selected at 320ft and 31kts
18:38 Brakes are On
18:38 Unpaused
Pirep logged with OA Virtual Tracking 1.0.2.3

Route Map